createdAt,value
2019-05-20T00:01:07.479Z,20.37
2019-05-20T00:03:33.886Z,19.07
2019-05-20T00:06:00.306Z,22.90
2019-05-20T00:08:26.578Z,19.47
2019-05-20T00:10:52.984Z,19.73
2019-05-20T00:13:19.361Z,21.83
2019-05-20T00:15:45.726Z,18.43
2019-05-20T00:18:12.115Z,18.73
2019-05-20T00:20:39.623Z,18.47
2019-05-20T00:23:06.013Z,20.77
2019-05-20T00:25:32.353Z,18.40
2019-05-20T00:27:58.728Z,22.30
2019-05-20T00:30:25.156Z,19.37
2019-05-20T00:32:51.559Z,20.63
2019-05-20T00:35:17.981Z,20.30
2019-05-20T00:37:44.446Z,20.87
2019-05-20T00:40:11.191Z,18.77
2019-05-20T00:42:37.675Z,17.37
2019-05-20T00:45:05.985Z,17.23
2019-05-20T00:47:32.377Z,18.27
2019-05-20T00:49:58.753Z,18.57
2019-05-20T00:52:25.128Z,18.23
2019-05-20T00:54:51.492Z,17.77
2019-05-20T00:57:17.920Z,17.87
2019-05-20T00:59:44.259Z,16.00
2019-05-20T01:02:10.699Z,19.97
2019-05-20T01:04:37.391Z,19.70
2019-05-20T01:07:03.708Z,18.37
2019-05-20T01:09:30.157Z,17.37
2019-05-20T01:11:56.497Z,23.10
2019-05-20T01:14:22.948Z,20.67
2019-05-20T01:16:49.265Z,28.07
2019-05-20T01:19:15.620Z,25.70
2019-05-20T01:21:41.967Z,25.47
2019-05-20T01:24:08.349Z,27.40
2019-05-20T01:26:34.703Z,28.20
2019-05-20T01:29:01.040Z,27.20
2019-05-20T01:31:27.378Z,26.90
2019-05-20T01:33:53.707Z,28.43
2019-05-20T01:36:20.044Z,23.37
2019-05-20T01:38:46.405Z,23.03
2019-05-20T01:41:13.858Z,23.57
2019-05-20T01:43:40.244Z,24.40
2019-05-20T01:46:06.589Z,23.87
2019-05-20T01:48:32.947Z,26.60
2019-05-20T01:50:59.373Z,28.30
2019-05-20T01:53:25.731Z,25.90
2019-05-20T01:55:52.109Z,25.83
2019-05-20T01:58:18.443Z,24.03
2019-05-20T02:00:44.827Z,26.33
2019-05-20T02:03:11.157Z,30.47
2019-05-20T02:05:37.519Z,27.10
2019-05-20T02:08:03.888Z,29.10
2019-05-20T02:10:30.265Z,28.20
2019-05-20T02:12:56.664Z,29.77
2019-05-20T02:15:36.992Z,31.00
2019-05-20T02:18:03.322Z,33.97
2019-05-20T02:20:29.796Z,29.57
2019-05-20T02:23:14.380Z,38.20
2019-05-20T02:25:46.596Z,26.20
2019-05-20T02:28:11.128Z,31.53
2019-05-20T02:30:37.502Z,30.00
2019-05-20T02:33:03.887Z,31.83
2019-05-20T02:35:30.270Z,32.40
2019-05-20T02:37:56.638Z,32.57
2019-05-20T02:40:22.975Z,32.97
2019-05-20T02:42:49.413Z,28.47
2019-05-20T02:45:15.972Z,33.93
2019-05-20T02:47:42.364Z,30.67
2019-05-20T02:50:08.985Z,34.00
2019-05-20T02:52:35.409Z,40.03
2019-05-20T02:55:02.401Z,41.27
2019-05-20T02:57:28.852Z,38.60
2019-05-20T02:59:55.218Z,40.77
2019-05-20T03:02:21.632Z,29.80
2019-05-20T03:04:48.033Z,30.37
2019-05-20T03:07:14.384Z,52.53
2019-05-20T03:09:40.856Z,43.53
2019-05-20T03:12:07.194Z,63.20
2019-05-20T03:14:33.583Z,36.60
2019-05-20T03:16:59.913Z,34.93
2019-05-20T03:19:26.313Z,37.70
2019-05-20T03:21:52.610Z,34.63
2019-05-20T03:24:19.015Z,40.77
2019-05-20T03:26:45.356Z,32.90
2019-05-20T03:29:12.122Z,30.90
2019-05-20T03:31:38.482Z,30.47
2019-05-20T03:34:04.905Z,28.60
2019-05-20T03:36:31.278Z,30.00
2019-05-20T03:38:57.591Z,31.50
2019-05-20T03:41:23.995Z,31.07
2019-05-20T03:43:50.320Z,31.43
2019-05-20T03:46:16.713Z,31.77
2019-05-20T03:48:43.038Z,33.23
2019-05-20T03:51:09.467Z,34.30
2019-05-20T03:53:35.785Z,35.73
2019-05-20T03:56:02.156Z,39.60
2019-05-20T03:58:28.458Z,37.50
2019-05-20T04:00:55.947Z,36.40
2019-05-20T04:03:22.305Z,39.13
2019-05-20T04:05:48.701Z,38.33
2019-05-20T04:08:15.060Z,35.23
2019-05-20T04:10:41.456Z,36.50
2019-05-20T04:13:07.763Z,33.77
2019-05-20T04:15:34.179Z,34.17
2019-05-20T04:18:00.746Z,32.97
2019-05-20T04:20:27.158Z,32.20
2019-05-20T04:22:53.523Z,30.80
2019-05-20T04:25:19.941Z,31.17
2019-05-20T04:27:46.355Z,28.97
2019-05-20T04:30:13.970Z,28.33
2019-05-20T04:32:40.383Z,24.77
2019-05-20T04:35:21.245Z,27.83
2019-05-20T04:37:36.073Z,27.83
2019-05-20T04:40:04.509Z,28.10
2019-05-20T04:42:30.850Z,29.17
2019-05-20T04:44:57.265Z,29.20
2019-05-20T04:47:23.623Z,26.57
2019-05-20T04:49:50.048Z,25.30
2019-05-20T04:52:16.379Z,25.20
2019-05-20T04:54:42.814Z,27.40
2019-05-20T04:57:09.159Z,23.07
2019-05-20T04:59:35.615Z,23.00
2019-05-20T05:02:02.069Z,23.87
2019-05-20T05:04:28.398Z,22.20
2019-05-20T05:06:54.793Z,21.80
2019-05-20T05:09:21.162Z,19.13
2019-05-20T05:11:47.578Z,18.53
2019-05-20T05:14:13.935Z,20.17
2019-05-20T05:16:40.311Z,17.57
2019-05-20T05:19:06.719Z,19.00
2019-05-20T05:21:33.091Z,17.80
2019-05-20T05:23:59.727Z,20.23
2019-05-20T05:26:26.188Z,14.97
2019-05-20T05:28:52.591Z,16.20
2019-05-20T05:31:18.923Z,16.23
2019-05-20T05:33:45.323Z,15.17
2019-05-20T05:36:11.689Z,14.80
2019-05-20T05:38:38.271Z,14.10
2019-05-20T05:41:04.640Z,14.80
2019-05-20T05:43:31.090Z,13.97
2019-05-20T05:45:57.443Z,13.00
2019-05-20T05:48:23.836Z,13.70
2019-05-20T05:50:50.228Z,12.57
2019-05-20T05:53:16.612Z,13.30
2019-05-20T05:55:42.974Z,11.80
2019-05-20T05:58:09.342Z,14.30
2019-05-20T06:00:35.690Z,13.27
2019-05-20T06:03:02.093Z,11.70
2019-05-20T06:05:31.568Z,13.30
2019-05-20T06:07:56.630Z,12.13
2019-05-20T06:10:23.183Z,12.23
2019-05-20T06:12:49.743Z,11.50
2019-05-20T06:15:18.256Z,12.13
2019-05-20T06:17:44.629Z,11.67
2019-05-20T06:20:12.973Z,13.63
2019-05-20T06:22:39.342Z,11.97
2019-05-20T06:25:06.423Z,11.20
2019-05-20T06:27:32.741Z,12.37
2019-05-20T06:29:59.150Z,11.43
2019-05-20T06:32:25.635Z,11.70
2019-05-20T06:34:52.051Z,11.50
2019-05-20T06:37:20.738Z,11.77
2019-05-20T06:39:47.122Z,11.70
2019-05-20T06:42:13.459Z,10.97
2019-05-20T06:44:52.390Z,11.77
2019-05-20T06:47:07.939Z,12.67
2019-05-20T06:49:34.290Z,11.87
2019-05-20T06:52:00.816Z,12.97
2019-05-20T06:54:27.162Z,11.30
2019-05-20T06:56:53.572Z,10.90
2019-05-20T06:59:19.939Z,11.33
2019-05-20T07:01:46.329Z,12.60
2019-05-20T07:04:12.814Z,12.70
2019-05-20T07:06:46.446Z,12.20
2019-05-20T07:09:07.390Z,12.50
2019-05-20T07:11:33.723Z,10.73
2019-05-20T07:14:00.520Z,9.27
2019-05-20T07:16:26.843Z,8.40
2019-05-20T07:18:54.132Z,8.30
2019-05-20T07:21:21.478Z,9.13
2019-05-20T07:23:47.888Z,10.38
2019-05-20T07:26:14.271Z,10.32
2019-05-20T07:28:40.726Z,9.85
2019-05-20T07:31:07.053Z,9.17
2019-05-20T07:33:33.433Z,11.30
2019-05-20T07:35:59.785Z,10.40
2019-05-20T07:38:27.234Z,9.88
2019-05-20T07:40:53.563Z,9.48
2019-05-20T07:43:19.985Z,8.30
2019-05-20T07:45:46.321Z,8.68
2019-05-20T07:48:13.385Z,7.45
2019-05-20T07:50:41.310Z,7.80
2019-05-20T07:53:09.703Z,7.95
2019-05-20T07:55:40.095Z,7.85
2019-05-20T07:58:07.346Z,7.20
2019-05-20T08:00:34.615Z,7.95
2019-05-20T08:03:01.055Z,8.73
2019-05-20T08:05:27.394Z,8.43
2019-05-20T08:07:53.828Z,7.60
2019-05-20T08:10:20.717Z,8.25
2019-05-20T08:12:48.289Z,6.80
2019-05-20T08:15:15.521Z,6.90
2019-05-20T08:17:41.892Z,6.78
2019-05-20T08:20:08.891Z,7.70
2019-05-20T08:22:35.322Z,9.65
2019-05-20T08:25:04.912Z,7.80
2019-05-20T08:27:31.269Z,9.25
2019-05-20T08:29:57.668Z,7.47
2019-05-20T08:32:24.108Z,7.45
2019-05-20T08:34:50.455Z,7.20
2019-05-20T08:37:16.884Z,7.53
2019-05-20T08:39:43.248Z,7.03
2019-05-20T08:42:09.662Z,7.25
2019-05-20T08:44:36.128Z,6.90
2019-05-20T08:47:02.736Z,7.78
2019-05-20T08:49:29.190Z,8.13
2019-05-20T08:51:55.540Z,7.28
2019-05-20T08:54:21.952Z,8.18
2019-05-20T08:56:49.358Z,7.75
2019-05-20T08:59:16.035Z,6.20
2019-05-20T09:01:42.521Z,6.53
2019-05-20T09:04:08.954Z,6.25
2019-05-20T09:06:35.453Z,6.15
2019-05-20T09:09:02.419Z,6.72
2019-05-20T09:11:29.352Z,6.08
2019-05-20T09:13:55.748Z,5.75
2019-05-20T09:16:22.138Z,5.97
2019-05-20T09:18:48.463Z,6.17
2019-05-20T09:21:15.230Z,6.17
2019-05-20T09:23:41.798Z,6.97
2019-05-20T09:26:08.325Z,5.53
2019-05-20T09:28:35.060Z,5.28
2019-05-20T09:31:01.713Z,5.50
2019-05-20T09:33:29.310Z,5.97
2019-05-20T09:35:55.738Z,5.28
2019-05-20T09:38:22.172Z,5.85
2019-05-20T09:40:48.947Z,5.95
2019-05-20T09:43:16.348Z,6.45
2019-05-20T09:45:42.732Z,5.37
2019-05-20T09:48:09.812Z,5.30
2019-05-20T09:50:36.397Z,5.62
2019-05-20T09:53:06.795Z,4.35
2019-05-20T09:55:31.236Z,5.20
2019-05-20T09:57:57.612Z,5.53
2019-05-20T10:00:24.337Z,5.17
2019-05-20T10:02:50.738Z,5.62
2019-05-20T10:05:17.063Z,5.97
2019-05-20T10:07:43.495Z,6.40
2019-05-20T10:10:10.391Z,6.15
2019-05-20T10:12:45.875Z,5.65
2019-05-20T10:15:05.937Z,5.47
2019-05-20T10:17:32.339Z,5.85
2019-05-20T10:19:58.789Z,6.00
2019-05-20T10:22:25.189Z,5.50
2019-05-20T10:24:51.547Z,5.72
2019-05-20T10:27:17.983Z,5.28
2019-05-20T10:29:45.456Z,5.97
2019-05-20T10:32:11.887Z,5.78
2019-05-20T10:34:38.324Z,5.47
2019-05-20T10:37:04.694Z,5.67
2019-05-20T10:39:31.017Z,5.47
2019-05-20T10:41:57.445Z,5.00
2019-05-20T10:44:23.807Z,5.60
2019-05-20T10:46:50.241Z,5.25
2019-05-20T10:49:16.584Z,5.30
2019-05-20T10:51:42.979Z,6.30
2019-05-20T10:54:09.394Z,5.85
2019-05-20T10:56:35.805Z,6.30
2019-05-20T10:59:03.273Z,6.22
2019-05-20T11:01:29.722Z,5.37
2019-05-20T11:03:56.144Z,5.03
2019-05-20T11:06:22.510Z,5.90
2019-05-20T11:08:48.988Z,6.15
2019-05-20T11:11:15.379Z,6.83
2019-05-20T11:13:42.834Z,6.12
2019-05-20T11:16:09.219Z,6.10
2019-05-20T11:18:35.585Z,7.28
2019-05-20T11:21:01.978Z,6.55
2019-05-20T11:23:28.454Z,7.22
2019-05-20T11:25:54.787Z,6.58
2019-05-20T11:28:22.267Z,7.12
2019-05-20T11:30:48.639Z,6.70
2019-05-20T11:33:15.139Z,5.87
2019-05-20T11:35:41.481Z,6.80
2019-05-20T11:38:07.944Z,6.90
2019-05-20T11:40:35.322Z,6.42
2019-05-20T11:43:01.809Z,6.47
2019-05-20T11:45:28.148Z,6.90
2019-05-20T11:47:54.593Z,7.00
2019-05-20T11:50:21.073Z,6.97
2019-05-20T11:52:47.444Z,7.28
2019-05-20T11:55:13.932Z,7.33
2019-05-20T11:57:40.349Z,7.83
2019-05-20T12:00:07.196Z,9.00
2019-05-20T12:02:33.604Z,9.20
2019-05-20T12:04:59.917Z,9.25
2019-05-20T12:07:26.412Z,9.53
2019-05-20T12:09:52.829Z,9.35
2019-05-20T12:12:19.349Z,11.20
2019-05-20T12:14:45.779Z,12.10
2019-05-20T12:17:14.774Z,12.50
2019-05-20T12:19:41.153Z,10.05
2019-05-20T12:22:07.642Z,7.92
2019-05-20T12:24:34.057Z,7.55
2019-05-20T12:27:00.525Z,7.22
2019-05-20T12:29:26.947Z,7.28
2019-05-20T12:31:53.302Z,8.03
2019-05-20T12:34:19.697Z,8.58
2019-05-20T12:36:46.021Z,7.92
2019-05-20T12:39:12.465Z,7.47
2019-05-20T12:41:38.878Z,7.15
2019-05-20T12:44:11.952Z,7.20
2019-05-20T12:46:36.296Z,6.87
2019-05-20T12:49:02.975Z,7.00
2019-05-20T12:51:29.408Z,6.95
2019-05-20T12:53:55.842Z,5.85
2019-05-20T12:56:22.319Z,5.80
2019-05-20T12:58:50.590Z,5.22
2019-05-20T13:01:18.952Z,4.60
2019-05-20T13:03:48.891Z,4.47
2019-05-20T13:06:16.523Z,5.15
2019-05-20T13:08:45.617Z,4.90
2019-05-20T13:11:15.944Z,4.33
2019-05-20T13:13:47.946Z,4.85
2019-05-20T13:16:15.258Z,4.55
2019-05-20T13:18:55.415Z,4.28
2019-05-20T13:21:22.995Z,3.70
2019-05-20T13:23:51.306Z,4.12
2019-05-20T13:26:19.616Z,3.92
2019-05-20T13:28:48.980Z,4.17
2019-05-20T13:31:16.350Z,5.12
2019-05-20T13:33:45.600Z,4.83
2019-05-20T13:36:13.918Z,5.08
2019-05-20T13:38:46.252Z,5.50
2019-05-20T13:41:14.594Z,5.20
2019-05-20T13:43:51.863Z,5.00
2019-05-20T13:46:31.755Z,4.92
2019-05-20T13:57:58.994Z,4.83
2019-05-20T14:03:13.559Z,5.17
2019-05-20T14:05:45.967Z,4.65
2019-05-20T14:08:22.050Z,4.78
2019-05-20T14:11:03.606Z,4.75
2019-05-20T14:13:40.020Z,5.00
2019-05-20T14:16:20.384Z,5.05
2019-05-20T14:19:10.211Z,5.22
2019-05-20T14:21:37.302Z,5.95
2019-05-20T14:24:31.693Z,5.97
2019-05-20T14:27:03.306Z,5.45
2019-05-20T14:29:52.726Z,5.30
2019-05-20T14:35:37.629Z,6.03
2019-05-20T14:44:02.587Z,5.55
2019-05-20T14:49:46.442Z,7.25
2019-05-20T14:52:15.840Z,7.37
2019-05-20T14:56:14.816Z,6.55
2019-05-20T14:57:54.479Z,6.17
2019-05-20T15:00:03.175Z,5.60
2019-05-20T15:05:36.263Z,7.45
2019-05-20T15:13:02.921Z,6.93
2019-05-20T15:14:15.288Z,7.50
2019-05-20T15:19:57.902Z,7.93
2019-05-20T15:25:46.367Z,8.83
2019-05-20T15:28:17.643Z,9.10
2019-05-20T15:35:17.802Z,8.97
2019-05-20T15:36:47.955Z,7.53
2019-05-20T15:42:16.834Z,8.37
2019-05-20T15:45:07.697Z,8.30
2019-05-20T15:47:59.638Z,8.80
2019-05-20T15:50:30.057Z,7.63
2019-05-20T15:55:55.936Z,7.43
2019-05-20T16:04:18.277Z,8.73
2019-05-20T16:06:44.882Z,9.03
2019-05-20T16:09:16.131Z,7.63
2019-05-20T16:11:49.609Z,7.43
2019-05-20T16:19:57.229Z,6.03
2019-05-20T16:25:56.755Z,6.30
2019-05-20T16:28:33.348Z,7.63
2019-05-20T16:33:58.938Z,5.57
2019-05-20T16:43:34.913Z,5.73
2019-05-20T16:48:24.398Z,4.90
2019-05-20T16:56:47.542Z,3.77
2019-05-20T16:59:21.563Z,4.83
2019-05-20T17:01:57.058Z,3.33
2019-05-20T17:05:08.710Z,4.07
2019-05-20T17:07:41.662Z,2.63
2019-05-20T17:10:31.482Z,2.70
2019-05-20T17:13:13.199Z,2.67
2019-05-20T17:27:35.098Z,3.80
2019-05-20T17:34:08.457Z,2.70
2019-05-20T17:36:34.846Z,10.50
2019-05-20T17:39:01.408Z,3.50
2019-05-20T17:41:28.744Z,2.60
2019-05-20T17:43:55.245Z,3.60
2019-05-20T17:46:21.961Z,3.30
2019-05-20T17:48:48.360Z,2.50
2019-05-20T17:51:14.894Z,2.17
2019-05-20T17:53:41.371Z,2.50
2019-05-20T17:56:08.127Z,2.90
2019-05-20T17:58:37.297Z,2.90
2019-05-20T18:01:14.778Z,3.17
2019-05-20T18:03:31.377Z,2.40
2019-05-20T18:05:58.087Z,2.63
2019-05-20T18:08:26.400Z,2.40
2019-05-20T18:10:53.093Z,2.63
2019-05-20T18:13:20.288Z,2.20
2019-05-20T18:15:48.025Z,2.10
2019-05-20T18:18:14.548Z,2.20
2019-05-20T18:20:41.353Z,1.90
2019-05-20T18:23:07.852Z,2.30
2019-05-20T18:25:34.381Z,1.80
2019-05-20T18:28:00.845Z,1.80
2019-05-20T18:30:27.498Z,2.40
2019-05-20T18:32:54.078Z,2.10
2019-05-20T18:35:20.829Z,2.00
2019-05-20T18:37:47.397Z,2.57
2019-05-20T18:40:15.114Z,2.40
2019-05-20T18:42:41.670Z,2.07
2019-05-20T18:45:08.464Z,2.30
2019-05-20T18:47:34.888Z,2.93
2019-05-20T18:50:03.503Z,2.50
2019-05-20T18:52:30.114Z,2.30
2019-05-20T18:54:56.816Z,2.40
2019-05-20T18:57:23.502Z,2.43
2019-05-20T18:59:49.942Z,2.03
2019-05-20T19:02:16.537Z,2.10
2019-05-20T19:04:42.913Z,2.50
2019-05-20T19:07:09.509Z,2.40
2019-05-20T19:09:36.062Z,2.80
2019-05-20T19:12:02.655Z,2.30
2019-05-20T19:14:29.294Z,2.30
2019-05-20T19:16:56.779Z,2.60
2019-05-20T19:19:23.217Z,2.63
2019-05-20T19:21:49.867Z,2.17
2019-05-20T19:24:16.348Z,2.87
2019-05-20T19:26:42.769Z,3.10
2019-05-20T19:29:09.216Z,3.10
2019-05-20T19:31:35.686Z,3.47
2019-05-20T19:34:02.075Z,2.87
2019-05-20T19:36:28.756Z,2.87
2019-05-20T19:38:55.181Z,3.17
2019-05-20T19:41:22.667Z,3.03
2019-05-20T19:43:49.147Z,2.60
2019-05-20T19:46:16.653Z,2.87
2019-05-20T19:48:43.117Z,3.20
2019-05-20T19:51:09.475Z,2.57
2019-05-20T19:53:35.921Z,2.83
2019-05-20T19:56:02.330Z,3.00
2019-05-20T19:58:28.772Z,3.33
2019-05-20T20:00:56.841Z,3.57
2019-05-20T20:03:23.399Z,8.27
2019-05-20T20:05:49.843Z,6.33
2019-05-20T20:08:17.298Z,6.80
2019-05-20T20:10:43.722Z,5.13
2019-05-20T20:13:10.136Z,4.80
2019-05-20T20:15:36.552Z,5.70
2019-05-20T20:18:03.148Z,6.47
2019-05-20T20:20:29.630Z,6.10
2019-05-20T20:22:56.042Z,6.27
2019-05-20T20:25:22.642Z,5.63
2019-05-20T20:27:48.946Z,5.63
2019-05-20T20:30:15.583Z,5.93
2019-05-20T20:32:41.965Z,5.43
2019-05-20T20:35:08.925Z,5.10
2019-05-20T20:37:35.318Z,4.60
2019-05-20T20:40:01.929Z,4.80
2019-05-20T20:42:28.457Z,5.00
2019-05-20T20:44:54.820Z,4.47
2019-05-20T20:47:21.223Z,4.97
2019-05-20T20:49:47.604Z,4.73
2019-05-20T20:52:14.021Z,4.17
2019-05-20T20:54:40.413Z,4.37
2019-05-20T20:57:06.937Z,5.10
2019-05-20T20:59:33.306Z,5.97
2019-05-20T21:01:59.766Z,8.13
2019-05-20T21:04:26.189Z,7.93
2019-05-20T21:06:52.586Z,6.80
2019-05-20T21:09:19.068Z,6.00
2019-05-20T21:11:45.411Z,5.43
2019-05-20T21:14:11.937Z,4.03
2019-05-20T21:16:38.375Z,3.47
2019-05-20T21:19:04.865Z,3.50
2019-05-20T21:21:31.550Z,4.30
2019-05-20T21:23:58.081Z,4.43
2019-05-20T21:26:24.572Z,3.90
2019-05-20T21:28:51.043Z,4.70
2019-05-20T21:31:17.577Z,4.50
2019-05-20T21:33:44.093Z,4.03
2019-05-20T21:36:10.476Z,4.57
2019-05-20T21:38:36.940Z,5.33
2019-05-20T21:41:03.383Z,4.67
2019-05-20T21:43:29.810Z,5.10
2019-05-20T21:45:56.231Z,5.80
2019-05-20T21:48:22.641Z,5.20
2019-05-20T21:50:49.083Z,6.10
2019-05-20T21:53:15.546Z,7.63
2019-05-20T21:55:42.005Z,7.20
2019-05-20T21:58:08.361Z,7.93
2019-05-20T22:00:39.574Z,7.47
2019-05-20T22:03:06.099Z,7.63
2019-05-20T22:05:32.746Z,6.93
2019-05-20T22:07:59.025Z,7.87
2019-05-20T22:10:25.531Z,8.17
2019-05-20T22:12:51.883Z,8.23
2019-05-20T22:15:18.320Z,7.70
2019-05-20T22:17:44.712Z,6.90
2019-05-20T22:20:13.157Z,6.90
2019-05-20T22:22:41.529Z,7.70
2019-05-20T22:25:08.183Z,5.80
2019-05-20T22:27:34.584Z,6.23
2019-05-20T22:30:00.984Z,6.03
2019-05-20T22:32:27.447Z,6.10
2019-05-20T22:34:54.123Z,6.37
2019-05-20T22:37:20.538Z,6.07
2019-05-20T22:39:47.110Z,6.10
2019-05-20T22:42:13.509Z,6.43
2019-05-20T22:44:39.855Z,5.40
2019-05-20T22:47:06.323Z,6.47
2019-05-20T22:49:32.668Z,5.60
2019-05-20T22:51:59.230Z,6.00
2019-05-20T22:54:25.579Z,6.10
2019-05-20T22:56:51.968Z,6.13
2019-05-20T22:59:18.344Z,5.33
2019-05-20T23:01:44.809Z,5.57
2019-05-20T23:04:11.225Z,5.97
2019-05-20T23:06:37.659Z,5.33
2019-05-20T23:09:05.978Z,5.60
2019-05-20T23:11:32.439Z,5.73
2019-05-20T23:13:58.848Z,5.90
2019-05-20T23:16:25.257Z,6.77
2019-05-20T23:18:51.679Z,6.47
2019-05-20T23:21:18.122Z,6.43
2019-05-20T23:23:44.612Z,5.73
2019-05-20T23:26:11.015Z,6.10
2019-05-20T23:28:37.461Z,5.67
2019-05-20T23:31:04.372Z,6.83
2019-05-20T23:33:30.696Z,6.37
2019-05-20T23:35:57.119Z,6.33
2019-05-20T23:38:23.508Z,5.97
2019-05-20T23:40:49.858Z,5.80
2019-05-20T23:43:16.238Z,5.57
2019-05-20T23:45:42.844Z,7.20
2019-05-20T23:51:17.399Z,5.70
2019-05-20T23:53:43.721Z,6.13
2019-05-20T23:56:10.110Z,6.77
2019-05-20T23:58:36.413Z,6.70
